createdAt,value
2022-11-29T00:01:15.123Z,2.54
2022-11-29T00:03:41.869Z,2.61
2022-11-29T00:06:09.377Z,2.60
2022-11-29T00:08:36.209Z,2.62
2022-11-29T00:11:03.529Z,2.62
2022-11-29T00:13:29.956Z,2.55
2022-11-29T00:15:56.551Z,2.56
2022-11-29T00:18:22.972Z,2.61
2022-11-29T00:20:49.377Z,2.65
2022-11-29T00:23:15.784Z,2.65
2022-11-29T00:25:42.220Z,2.68
2022-11-29T00:28:08.624Z,2.70
2022-11-29T00:30:35.158Z,2.71
2022-11-29T00:33:03.141Z,2.70
2022-11-29T00:35:29.566Z,2.65
2022-11-29T00:37:55.973Z,2.62
2022-11-29T00:40:22.423Z,2.63
2022-11-29T00:42:48.846Z,2.62
2022-11-29T00:45:15.278Z,2.65
2022-11-29T00:47:41.709Z,2.63
2022-11-29T00:50:08.391Z,2.64
2022-11-29T00:52:35.202Z,2.63
2022-11-29T00:55:01.665Z,2.59
2022-11-29T00:57:28.135Z,2.61
2022-11-29T00:59:54.708Z,2.60
2022-11-29T01:02:21.178Z,2.61
2022-11-29T01:04:47.757Z,2.68
2022-11-29T01:07:14.291Z,2.67
2022-11-29T01:09:40.756Z,2.70
2022-11-29T01:12:07.257Z,2.71
2022-11-29T01:14:33.693Z,2.65
2022-11-29T01:17:00.185Z,2.60
2022-11-29T01:19:26.626Z,2.57
2022-11-29T01:21:53.138Z,2.60
2022-11-29T01:24:19.538Z,2.66
2022-11-29T01:26:46.018Z,2.63
2022-11-29T01:29:12.495Z,2.69
2022-11-29T01:31:39.013Z,2.60
2022-11-29T01:34:06.014Z,2.62
2022-11-29T01:36:32.571Z,2.60
2022-11-29T01:38:59.559Z,2.57
2022-11-29T01:41:26.874Z,2.56
2022-11-29T01:43:58.638Z,2.60
2022-11-29T01:46:25.344Z,2.63
2022-11-29T01:48:52.096Z,2.66
2022-11-29T01:51:18.585Z,2.67
2022-11-29T01:53:45.007Z,2.65
2022-11-29T01:56:11.525Z,2.63
2022-11-29T01:58:38.350Z,2.60
2022-11-29T02:01:04.857Z,2.56
2022-11-29T02:03:31.456Z,2.63
2022-11-29T02:05:57.944Z,2.63
2022-11-29T02:08:26.184Z,2.63
2022-11-29T02:11:07.668Z,2.66
2022-11-29T02:13:37.064Z,2.60
2022-11-29T02:16:05.275Z,2.62
2022-11-29T02:18:31.681Z,2.59
2022-11-29T02:21:19.978Z,2.59
2022-11-29T02:23:49.373Z,2.59
2022-11-29T02:26:22.032Z,2.61
2022-11-29T02:28:55.923Z,2.61
2022-11-29T02:31:41.174Z,2.61
2022-11-29T02:34:40.157Z,2.63
2022-11-29T02:37:12.865Z,2.59
2022-11-29T02:39:39.289Z,2.59
2022-11-29T02:42:11.791Z,2.74
2022-11-29T02:44:41.401Z,2.73
2022-11-29T02:47:26.728Z,2.75
2022-11-29T02:50:10.355Z,2.75
2022-11-29T02:52:39.774Z,2.74
2022-11-29T02:55:12.403Z,2.72
2022-11-29T02:57:54.184Z,2.75
2022-11-29T03:00:20.895Z,2.72
2022-11-29T03:02:47.306Z,2.75
2022-11-29T03:05:19.856Z,2.75
2022-11-29T03:07:53.812Z,2.70
2022-11-29T03:10:22.936Z,2.71
2022-11-29T03:12:49.847Z,2.68
2022-11-29T03:15:21.757Z,2.70
2022-11-29T03:18:23.784Z,2.69
2022-11-29T03:20:50.172Z,2.76
2022-11-29T03:23:16.561Z,2.76
2022-11-29T03:25:57.527Z,2.72
2022-11-29T03:28:42.976Z,2.76
2022-11-29T03:31:09.430Z,2.75
2022-11-29T03:33:38.961Z,2.73
2022-11-29T03:36:07.665Z,2.66
2022-11-29T03:38:37.185Z,2.67
2022-11-29T03:41:22.310Z,2.70
2022-11-29T03:43:48.782Z,2.71
2022-11-29T03:46:33.276Z,2.71
2022-11-29T03:49:01.797Z,2.75
2022-11-29T03:51:37.775Z,2.75
2022-11-29T03:54:07.974Z,2.82
2022-11-29T03:56:35.326Z,2.76
2022-11-29T03:59:01.689Z,2.77
2022-11-29T04:01:34.324Z,2.79
2022-11-29T04:04:03.717Z,2.81
2022-11-29T04:06:36.236Z,2.84
2022-11-29T04:09:08.830Z,2.84
2022-11-29T04:11:35.244Z,2.83
2022-11-29T04:14:21.908Z,2.87
2022-11-29T04:17:00.567Z,2.81
2022-11-29T04:19:30.186Z,2.82
2022-11-29T04:22:15.303Z,2.81
2022-11-29T04:24:45.080Z,2.79
2022-11-29T04:27:19.400Z,2.80
2022-11-29T04:30:04.616Z,2.77
2022-11-29T04:32:37.333Z,2.78
2022-11-29T04:35:13.050Z,2.79
2022-11-29T04:37:54.750Z,2.84
2022-11-29T04:40:21.206Z,2.91
2022-11-29T04:42:50.292Z,2.98
2022-11-29T04:45:16.689Z,2.98
2022-11-29T04:47:46.397Z,3.00
2022-11-29T04:50:15.633Z,2.97
2022-11-29T04:53:00.833Z,2.96
2022-11-29T04:55:36.426Z,3.00
2022-11-29T04:58:02.835Z,3.00
2022-11-29T05:00:29.257Z,3.01
2022-11-29T05:03:00.035Z,3.03
2022-11-29T05:05:45.460Z,3.02
2022-11-29T05:08:18.079Z,3.04
2022-11-29T05:10:47.647Z,3.01
2022-11-29T05:13:26.220Z,3.02
2022-11-29T05:16:11.670Z,3.06
2022-11-29T05:18:38.135Z,3.04
2022-11-29T05:21:19.509Z,3.04
2022-11-29T05:23:54.116Z,3.06
2022-11-29T05:26:27.197Z,3.06
2022-11-29T05:29:04.017Z,3.01
2022-11-29T05:31:30.779Z,3.01
2022-11-29T05:34:21.338Z,3.01
2022-11-29T05:37:06.139Z,2.99
2022-11-29T05:39:38.636Z,3.01
2022-11-29T05:42:08.204Z,2.98
2022-11-29T05:45:01.026Z,2.99
2022-11-29T05:47:32.591Z,2.96
2022-11-29T05:50:02.692Z,2.91
2022-11-29T05:52:39.964Z,2.89
2022-11-29T05:55:18.808Z,2.92
2022-11-29T05:57:51.288Z,2.90
2022-11-29T06:00:17.808Z,2.92
2022-11-29T06:02:44.257Z,2.94
2022-11-29T06:05:16.927Z,2.94
2022-11-29T06:07:48.366Z,2.97
2022-11-29T06:10:17.860Z,3.01
2022-11-29T06:12:57.248Z,2.99
2022-11-29T06:15:23.747Z,3.01
2022-11-29T06:18:13.291Z,3.04
2022-11-29T06:20:42.516Z,3.05
2022-11-29T06:23:12.229Z,3.06
2022-11-29T06:25:48.520Z,3.06
2022-11-29T06:28:23.012Z,3.04
2022-11-29T06:30:53.529Z,3.05
2022-11-29T06:33:23.863Z,3.06
2022-11-29T06:35:50.331Z,3.07
2022-11-29T06:38:16.763Z,3.06
2022-11-29T06:40:43.304Z,3.07
2022-11-29T06:43:09.829Z,3.08
2022-11-29T06:45:36.388Z,3.06
2022-11-29T06:48:03.914Z,3.13
2022-11-29T06:50:30.596Z,3.11
2022-11-29T06:53:11.634Z,3.15
2022-11-29T06:55:38.065Z,3.16
2022-11-29T06:58:15.042Z,3.10
2022-11-29T07:00:44.629Z,3.06
2022-11-29T07:03:29.573Z,3.11
2022-11-29T07:05:56.208Z,3.09
2022-11-29T07:08:23.172Z,3.11
2022-11-29T07:10:50.580Z,3.11
2022-11-29T07:13:17.807Z,3.13
2022-11-29T07:15:55.074Z,3.21
2022-11-29T07:18:21.522Z,3.24
2022-11-29T07:20:51.696Z,3.26
2022-11-29T07:23:36.367Z,3.32
2022-11-29T07:26:23.024Z,3.35
2022-11-29T07:28:53.039Z,3.35
2022-11-29T07:31:22.375Z,3.41
2022-11-29T07:33:54.558Z,3.47
2022-11-29T07:36:41.552Z,3.55
2022-11-29T07:39:10.782Z,3.61
2022-11-29T07:41:40.242Z,3.65
2022-11-29T07:44:09.999Z,3.67
2022-11-29T07:46:36.476Z,3.75
2022-11-29T07:49:02.903Z,3.79
2022-11-29T07:51:29.413Z,3.83
2022-11-29T07:53:55.979Z,3.90
2022-11-29T07:56:22.594Z,3.90
2022-11-29T07:58:49.105Z,3.95
2022-11-29T08:01:15.815Z,4.05
2022-11-29T08:03:42.331Z,4.06
2022-11-29T08:06:08.814Z,4.13
2022-11-29T08:08:39.213Z,4.13
2022-11-29T08:11:10.719Z,4.15
2022-11-29T08:13:37.359Z,4.18
2022-11-29T08:16:03.838Z,4.20
2022-11-29T08:18:30.301Z,4.18
2022-11-29T08:20:56.726Z,4.18
2022-11-29T08:23:23.145Z,4.18
2022-11-29T08:25:49.603Z,4.16
2022-11-29T08:28:16.232Z,4.18
2022-11-29T08:30:42.675Z,4.20
2022-11-29T08:33:09.272Z,4.26
2022-11-29T08:35:36.227Z,4.33
2022-11-29T08:38:04.047Z,4.35
2022-11-29T08:40:30.511Z,4.35
2022-11-29T08:42:57.611Z,4.41
2022-11-29T08:45:24.268Z,4.42
2022-11-29T08:47:50.664Z,4.42
2022-11-29T08:50:17.464Z,4.44
2022-11-29T08:53:03.030Z,4.43
2022-11-29T08:55:31.680Z,4.40
2022-11-29T08:58:05.304Z,4.49
2022-11-29T09:00:32.221Z,4.55
2022-11-29T09:03:18.658Z,4.51
2022-11-29T09:05:45.207Z,4.52
2022-11-29T09:08:11.787Z,4.50
2022-11-29T09:10:39.655Z,4.47
2022-11-29T09:13:06.479Z,4.45
2022-11-29T09:15:33.109Z,4.49
2022-11-29T09:17:59.534Z,4.47
2022-11-29T09:20:26.010Z,4.48
2022-11-29T09:22:52.837Z,4.48
2022-11-29T09:25:43.255Z,4.46
2022-11-29T09:28:11.415Z,4.39
2022-11-29T09:30:38.211Z,4.43
2022-11-29T09:33:05.305Z,4.44
2022-11-29T09:35:32.046Z,4.42
2022-11-29T09:37:58.714Z,4.48
2022-11-29T09:40:27.654Z,4.49
2022-11-29T09:42:56.129Z,4.47
2022-11-29T09:45:27.411Z,4.48
2022-11-29T09:48:12.743Z,4.54
2022-11-29T09:50:45.768Z,4.59
2022-11-29T09:53:31.340Z,4.64
2022-11-29T09:55:57.763Z,4.64
2022-11-29T09:58:26.283Z,4.60
2022-11-29T10:00:58.401Z,4.54
2022-11-29T10:03:25.672Z,4.45
2022-11-29T10:06:02.923Z,4.43
2022-11-29T10:08:32.612Z,4.43
2022-11-29T10:11:05.840Z,4.37
2022-11-29T10:13:33.455Z,4.44
2022-11-29T10:16:01.643Z,4.46
2022-11-29T10:18:38.577Z,4.50
2022-11-29T10:21:06.947Z,4.52
2022-11-29T10:23:34.914Z,4.51
2022-11-29T10:26:01.345Z,4.50
2022-11-29T10:28:30.758Z,4.56
2022-11-29T10:30:58.633Z,4.61
2022-11-29T10:33:32.915Z,4.63
2022-11-29T10:36:00.013Z,4.59
2022-11-29T10:38:31.175Z,4.55
2022-11-29T10:40:59.208Z,4.53
2022-11-29T10:43:25.942Z,4.60
2022-11-29T10:45:55.994Z,4.61
2022-11-29T10:48:25.416Z,4.59
2022-11-29T10:50:52.264Z,4.67
2022-11-29T10:53:25.920Z,4.67
2022-11-29T10:55:55.502Z,4.68
2022-11-29T10:58:28.449Z,4.76
2022-11-29T11:00:55.449Z,4.84
2022-11-29T11:03:27.517Z,4.90
2022-11-29T11:05:57.107Z,4.96
2022-11-29T11:08:24.500Z,4.97
2022-11-29T11:11:01.274Z,5.09
2022-11-29T11:13:29.456Z,5.17
2022-11-29T11:15:56.837Z,5.34
2022-11-29T11:18:24.461Z,5.43
2022-11-29T11:20:55.008Z,5.45
2022-11-29T11:23:36.479Z,5.45
2022-11-29T11:26:07.648Z,5.43
2022-11-29T11:28:44.799Z,5.40
2022-11-29T11:31:11.476Z,5.41
2022-11-29T11:33:38.839Z,5.43
2022-11-29T11:36:06.773Z,5.44
2022-11-29T11:38:34.254Z,5.42
2022-11-29T11:41:04.307Z,5.37
2022-11-29T11:43:37.993Z,5.24
2022-11-29T11:46:07.893Z,5.20
2022-11-29T11:48:34.593Z,5.09
2022-11-29T11:51:00.991Z,5.07
2022-11-29T11:53:35.888Z,5.03
2022-11-29T11:56:03.352Z,5.02
2022-11-29T11:58:32.867Z,5.01
2022-11-29T12:01:08.414Z,5.07
2022-11-29T12:03:34.882Z,5.07
2022-11-29T12:06:21.776Z,5.08
2022-11-29T12:08:48.461Z,5.11
2022-11-29T12:11:15.854Z,5.11
2022-11-29T12:13:43.918Z,5.09
2022-11-29T12:16:14.897Z,5.06
2022-11-29T12:18:46.659Z,5.06
2022-11-29T12:21:14.507Z,5.04
2022-11-29T12:23:44.572Z,5.01
2022-11-29T12:26:41.159Z,4.96
2022-11-29T12:29:10.145Z,4.93
2022-11-29T12:31:36.745Z,4.85
2022-11-29T12:34:22.788Z,4.76
2022-11-29T12:37:02.405Z,4.73
2022-11-29T12:39:29.044Z,4.74
2022-11-29T12:41:56.663Z,4.73
2022-11-29T12:44:29.332Z,4.72
2022-11-29T12:47:34.640Z,4.71
2022-11-29T12:50:07.855Z,4.67
2022-11-29T12:52:37.303Z,4.63
2022-11-29T12:55:10.225Z,4.66
2022-11-29T12:57:42.977Z,4.68
2022-11-29T13:00:09.708Z,4.68
2022-11-29T13:03:02.744Z,4.64
2022-11-29T13:05:38.221Z,4.70
2022-11-29T13:08:10.812Z,4.70
2022-11-29T13:10:40.195Z,4.66
2022-11-29T13:13:25.672Z,4.65
2022-11-29T13:15:54.923Z,4.63
2022-11-29T13:18:21.349Z,4.61
2022-11-29T13:20:47.843Z,4.56
2022-11-29T13:23:46.190Z,4.52
2022-11-29T13:26:10.640Z,4.45
2022-11-29T13:28:40.550Z,4.43
2022-11-29T13:31:07.797Z,4.42
2022-11-29T13:33:40.457Z,4.41
2022-11-29T13:36:14.527Z,4.37
2022-11-29T13:38:59.732Z,4.37
2022-11-29T13:41:34.963Z,4.36
2022-11-29T13:44:02.613Z,4.34
2022-11-29T13:46:50.693Z,4.35
2022-11-29T13:49:20.917Z,4.37
2022-11-29T13:51:47.443Z,4.38
2022-11-29T13:54:25.581Z,4.39
2022-11-29T13:57:08.918Z,4.40
2022-11-29T13:59:44.160Z,4.38
2022-11-29T14:02:29.018Z,4.35
2022-11-29T14:04:55.674Z,4.32
2022-11-29T14:07:22.218Z,4.26
2022-11-29T14:09:48.659Z,4.25
2022-11-29T14:12:18.944Z,4.25
2022-11-29T14:14:52.712Z,4.21
2022-11-29T14:17:34.591Z,4.22
2022-11-29T14:20:19.751Z,4.23
2022-11-29T14:23:04.406Z,4.21
2022-11-29T14:28:17.661Z,4.11
2022-11-29T14:30:44.109Z,4.09
2022-11-29T14:33:13.370Z,4.05
2022-11-29T14:35:42.741Z,3.99
2022-11-29T14:38:15.433Z,3.91
2022-11-29T14:40:41.935Z,3.88
2022-11-29T14:43:25.400Z,3.87
2022-11-29T14:46:27.756Z,3.81
2022-11-29T14:48:55.854Z,3.74
2022-11-29T14:51:23.092Z,3.67
2022-11-29T14:53:51.591Z,3.57
2022-11-29T14:56:35.134Z,3.46
2022-11-29T14:59:20.744Z,3.33
2022-11-29T15:01:47.357Z,3.19
2022-11-29T15:04:14.073Z,3.08
2022-11-29T15:06:46.179Z,2.95
2022-11-29T15:09:17.571Z,2.70
2022-11-29T15:11:50.454Z,2.51
2022-11-29T15:14:23.467Z,2.27
2022-11-29T15:16:49.902Z,2.09
2022-11-29T15:19:31.615Z,1.97
2022-11-29T15:22:06.558Z,1.82
2022-11-29T15:24:48.957Z,1.67
2022-11-29T15:27:17.899Z,1.56
2022-11-29T15:29:48.224Z,1.52
2022-11-29T15:32:21.019Z,1.51
2022-11-29T15:34:50.235Z,1.53
2022-11-29T15:37:23.608Z,1.57
2022-11-29T15:40:00.410Z,1.60
2022-11-29T15:42:32.446Z,1.63
2022-11-29T15:44:59.134Z,1.62
2022-11-29T15:47:25.965Z,1.58
2022-11-29T15:49:52.823Z,1.54
2022-11-29T15:52:30.632Z,1.50
2022-11-29T15:54:59.468Z,1.46
2022-11-29T15:57:30.198Z,1.44
2022-11-29T16:00:01.095Z,1.45
2022-11-29T16:02:28.349Z,1.47
2022-11-29T16:04:56.076Z,1.48
2022-11-29T16:07:22.674Z,1.49
2022-11-29T16:09:59.722Z,1.47
2022-11-29T16:12:26.234Z,1.41
2022-11-29T16:14:53.614Z,1.38
2022-11-29T16:17:20.840Z,1.38
2022-11-29T16:19:47.583Z,1.36
2022-11-29T16:22:14.405Z,1.33
2022-11-29T16:25:01.464Z,1.28
2022-11-29T16:27:29.109Z,1.25
2022-11-29T16:29:55.701Z,1.20
2022-11-29T16:32:33.966Z,1.16
2022-11-29T16:35:14.121Z,1.13
2022-11-29T16:37:42.601Z,1.14
2022-11-29T16:40:27.982Z,1.10
2022-11-29T16:43:03.717Z,1.08
2022-11-29T16:45:30.130Z,1.04
2022-11-29T16:47:59.648Z,1.02
2022-11-29T16:50:26.994Z,0.99
2022-11-29T16:52:56.622Z,0.98
2022-11-29T16:55:23.539Z,0.98
2022-11-29T16:57:50.180Z,0.94
2022-11-29T17:00:30.605Z,0.89
2022-11-29T17:02:57.552Z,0.77
2022-11-29T17:05:24.028Z,0.71
2022-11-29T17:07:50.477Z,0.68
2022-11-29T17:10:18.021Z,0.69
2022-11-29T17:12:47.959Z,0.68
2022-11-29T17:15:14.808Z,0.65
2022-11-29T17:17:41.963Z,0.56
2022-11-29T17:20:08.623Z,0.47
2022-11-29T17:22:35.303Z,0.43
2022-11-29T17:25:01.755Z,0.41
2022-11-29T17:27:28.173Z,0.42
2022-11-29T17:29:54.595Z,0.41
2022-11-29T17:32:26.486Z,0.40
2022-11-29T17:34:53.456Z,0.42
2022-11-29T17:37:19.962Z,0.42
2022-11-29T17:39:48.537Z,0.44
2022-11-29T17:42:15.153Z,0.41
2022-11-29T17:44:41.953Z,0.39
2022-11-29T17:47:08.414Z,0.39
2022-11-29T17:49:34.941Z,0.38
2022-11-29T17:52:01.419Z,0.37
2022-11-29T17:54:28.136Z,0.30
2022-11-29T17:56:54.586Z,0.25
2022-11-29T17:59:21.247Z,0.21
2022-11-29T18:01:47.944Z,0.15
2022-11-29T18:04:14.543Z,0.10
2022-11-29T18:06:41.127Z,0.09
2022-11-29T18:09:08.654Z,0.07
2022-11-29T18:11:44.939Z,0.06
2022-11-29T18:14:13.651Z,-0.01
2022-11-29T18:16:40.180Z,-0.06
2022-11-29T18:19:07.727Z,-0.13
2022-11-29T18:21:34.365Z,-0.16
2022-11-29T18:24:00.966Z,-0.21
2022-11-29T18:26:27.533Z,-0.23
2022-11-29T18:28:54.051Z,-0.30
2022-11-29T18:31:21.365Z,-0.36
2022-11-29T18:33:48.347Z,-0.43
2022-11-29T18:36:15.892Z,-0.49
2022-11-29T18:38:42.893Z,-0.57
2022-11-29T18:41:19.455Z,-0.64
2022-11-29T18:43:46.165Z,-0.76
2022-11-29T18:46:41.419Z,-0.84
2022-11-29T18:49:23.220Z,-0.89
2022-11-29T18:51:50.016Z,-0.88
2022-11-29T18:54:17.169Z,-0.86
2022-11-29T18:56:43.969Z,-0.84
2022-11-29T18:59:20.678Z,-0.84
2022-11-29T19:01:48.234Z,-0.84
2022-11-29T19:04:19.330Z,-0.86
2022-11-29T19:06:47.710Z,-0.88
2022-11-29T19:09:15.477Z,-0.92
2022-11-29T19:11:42.282Z,-1.00
2022-11-29T19:14:12.962Z,-1.04
2022-11-29T19:17:07.768Z,-1.09
2022-11-29T19:19:34.604Z,-1.19
2022-11-29T19:22:13.167Z,-1.26
2022-11-29T19:24:41.794Z,-1.25
2022-11-29T19:27:11.051Z,-1.21
2022-11-29T19:29:39.856Z,-1.19
2022-11-29T19:32:09.671Z,-1.17
2022-11-29T19:34:36.211Z,-1.18
2022-11-29T19:37:20.098Z,-1.24
2022-11-29T19:40:01.275Z,-1.30
2022-11-29T19:42:30.855Z,-1.30
2022-11-29T19:47:56.413Z,-1.21
2022-11-29T19:50:27.148Z,-1.18
2022-11-29T19:53:01.493Z,-1.15
2022-11-29T19:55:44.217Z,-1.11
2022-11-29T19:58:11.019Z,-1.15
2022-11-29T20:00:40.106Z,-1.22
2022-11-29T20:03:08.866Z,-1.27
2022-11-29T20:05:36.569Z,-1.37
2022-11-29T20:08:03.273Z,-1.38
2022-11-29T20:10:48.574Z,-1.37
2022-11-29T20:13:15.190Z,-1.36
2022-11-29T20:15:44.822Z,-1.32
2022-11-29T20:18:21.268Z,-1.32
2022-11-29T20:20:58.193Z,-1.32
2022-11-29T20:23:40.510Z,-1.32
2022-11-29T20:26:44.213Z,-1.31
2022-11-29T20:29:16.013Z,-1.31
2022-11-29T20:31:49.056Z,-1.37
2022-11-29T20:34:16.907Z,-1.47
2022-11-29T20:36:43.534Z,-1.55
2022-11-29T20:39:22.281Z,-1.59
2022-11-29T20:41:54.731Z,-1.64
2022-11-29T20:44:22.001Z,-1.64
2022-11-29T20:46:48.619Z,-1.61
2022-11-29T20:49:15.288Z,-1.59
2022-11-29T20:51:44.188Z,-1.57
2022-11-29T20:54:11.231Z,-1.59
2022-11-29T20:56:37.638Z,-1.62
2022-11-29T20:59:04.083Z,-1.64
2022-11-29T21:01:30.585Z,-1.66
2022-11-29T21:03:57.142Z,-1.67
2022-11-29T21:06:24.045Z,-1.66
2022-11-29T21:08:51.218Z,-1.62
2022-11-29T21:11:17.988Z,-1.61
2022-11-29T21:13:44.588Z,-1.59
2022-11-29T21:16:14.093Z,-1.59
2022-11-29T21:18:43.984Z,-1.64
2022-11-29T21:21:10.521Z,-1.68
2022-11-29T21:23:45.346Z,-1.75
2022-11-29T21:26:23.137Z,-1.77
2022-11-29T21:28:53.564Z,-1.77
2022-11-29T21:31:20.157Z,-1.77
2022-11-29T21:33:46.899Z,-1.72
2022-11-29T21:36:13.345Z,-1.69
2022-11-29T21:38:39.798Z,-1.67
2022-11-29T21:41:06.241Z,-1.66
2022-11-29T21:44:04.352Z,-1.71
2022-11-29T21:46:19.217Z,-1.70
2022-11-29T21:48:45.670Z,-1.71
2022-11-29T21:51:12.246Z,-1.67
2022-11-29T21:53:38.782Z,-1.63
2022-11-29T21:56:06.216Z,-1.57
2022-11-29T21:58:33.120Z,-1.58
2022-11-29T22:01:09.332Z,-1.63
2022-11-29T22:03:35.839Z,-1.68
2022-11-29T22:06:03.400Z,-1.72
2022-11-29T22:08:30.229Z,-1.79
2022-11-29T22:11:03.812Z,-1.82
2022-11-29T22:13:30.377Z,-1.84
2022-11-29T22:16:03.797Z,-1.88
2022-11-29T22:18:30.319Z,-1.90
2022-11-29T22:21:00.799Z,-1.92
2022-11-29T22:23:27.511Z,-2.07
2022-11-29T22:25:53.955Z,-2.22
2022-11-29T22:28:20.413Z,-2.34
2022-11-29T22:30:46.883Z,-2.38
2022-11-29T22:33:15.335Z,-2.36
2022-11-29T22:35:46.861Z,-2.32
2022-11-29T22:38:13.269Z,-2.29
2022-11-29T22:40:40.578Z,-2.24
2022-11-29T22:43:07.184Z,-2.21
2022-11-29T22:45:33.615Z,-2.21
2022-11-29T22:48:00.053Z,-2.21
2022-11-29T22:50:26.508Z,-2.19
2022-11-29T22:52:53.524Z,-2.23
2022-11-29T22:55:19.979Z,-2.26
2022-11-29T22:57:46.436Z,-2.29
2022-11-29T23:00:13.683Z,-2.27
2022-11-29T23:02:40.213Z,-2.25
2022-11-29T23:05:06.877Z,-2.28
2022-11-29T23:07:33.368Z,-2.28
2022-11-29T23:09:59.918Z,-2.32
2022-11-29T23:12:38.868Z,-2.34
2022-11-29T23:15:05.503Z,-2.37
2022-11-29T23:17:31.985Z,-2.38
2022-11-29T23:19:58.431Z,-2.38
2022-11-29T23:22:25.024Z,-2.37
2022-11-29T23:24:51.573Z,-2.33
2022-11-29T23:27:18.029Z,-2.28
2022-11-29T23:29:44.497Z,-2.25
2022-11-29T23:32:10.959Z,-2.24
2022-11-29T23:34:37.365Z,-2.28
2022-11-29T23:37:04.830Z,-2.31
2022-11-29T23:39:31.241Z,-2.33
2022-11-29T23:41:57.669Z,-2.32
2022-11-29T23:44:24.077Z,-2.33
2022-11-29T23:46:50.541Z,-2.36
2022-11-29T23:49:16.984Z,-2.38
2022-11-29T23:51:43.616Z,-2.44
2022-11-29T23:54:10.012Z,-2.49
2022-11-29T23:56:36.425Z,-2.52
2022-11-29T23:59:02.944Z,-2.56
